sensor_id;sensor_type;location;lat;lon;timestamp;temperature;humidity
71096;DHT22;58753;49.440;11.126;2023-06-24T00:02:02;16.50;82.63
71096;DHT22;58753;49.440;11.126;2023-06-24T00:04:28;16.46;82.70
71096;DHT22;58753;49.440;11.126;2023-06-24T00:06:53;16.40;82.97
71096;DHT22;58753;49.440;11.126;2023-06-24T00:09:23;16.38;83.10
71096;DHT22;58753;49.440;11.126;2023-06-24T00:11:49;16.32;83.43
71096;DHT22;58753;49.440;11.126;2023-06-24T00:14:14;16.28;83.39
71096;DHT22;58753;49.440;11.126;2023-06-24T00:16:40;16.23;83.59
71096;DHT22;58753;49.440;11.126;2023-06-24T00:19:07;16.16;83.50
71096;DHT22;58753;49.440;11.126;2023-06-24T00:21:33;16.15;83.78
71096;DHT22;58753;49.440;11.126;2023-06-24T00:24:00;16.08;83.84
71096;DHT22;58753;49.440;11.126;2023-06-24T00:26:29;16.06;84.06
71096;DHT22;58753;49.440;11.126;2023-06-24T00:28:55;16.04;84.08
71096;DHT22;58753;49.440;11.126;2023-06-24T00:31:20;16.01;84.30
71096;DHT22;58753;49.440;11.126;2023-06-24T00:33:46;16.02;84.40
71096;DHT22;58753;49.440;11.126;2023-06-24T00:36:12;15.99;84.48
71096;DHT22;58753;49.440;11.126;2023-06-24T00:38:38;15.98;84.45
71096;DHT22;58753;49.440;11.126;2023-06-24T00:41:04;15.92;84.44
71096;DHT22;58753;49.440;11.126;2023-06-24T00:43:29;15.85;84.46
71096;DHT22;58753;49.440;11.126;2023-06-24T00:45:56;15.84;84.56
71096;DHT22;58753;49.440;11.126;2023-06-24T00:48:21;15.74;84.70
71096;DHT22;58753;49.440;11.126;2023-06-24T00:50:47;15.72;84.71
71096;DHT22;58753;49.440;11.126;2023-06-24T00:53:17;15.67;84.86
71096;DHT22;58753;49.440;11.126;2023-06-24T00:55:43;15.61;84.89
71096;DHT22;58753;49.440;11.126;2023-06-24T00:58:11;15.54;84.92
71096;DHT22;58753;49.440;11.126;2023-06-24T01:00:41;15.50;84.99
71096;DHT22;58753;49.440;11.126;2023-06-24T01:03:07;15.40;84.97
71096;DHT22;58753;49.440;11.126;2023-06-24T01:05:34;15.38;85.43
71096;DHT22;58753;49.440;11.126;2023-06-24T01:08:02;15.31;85.27
71096;DHT22;58753;49.440;11.126;2023-06-24T01:10:27;15.27;85.36
71096;DHT22;58753;49.440;11.126;2023-06-24T01:12:53;15.24;85.58
71096;DHT22;58753;49.440;11.126;2023-06-24T01:15:19;15.22;85.63
71096;DHT22;58753;49.440;11.126;2023-06-24T01:20:41;15.10;85.84
71096;DHT22;58753;49.440;11.126;2023-06-24T01:34:58;14.84;86.32
71096;DHT22;58753;49.440;11.126;2023-06-24T01:37:33;14.80;86.38
71096;DHT22;58753;49.440;11.126;2023-06-24T01:40:12;14.77;86.41
71096;DHT22;58753;49.440;11.126;2023-06-24T01:42:43;14.76;86.32
71096;DHT22;58753;49.440;11.126;2023-06-24T01:45:13;14.70;86.41
71096;DHT22;58753;49.440;11.126;2023-06-24T01:47:41;14.69;86.50
71096;DHT22;58753;49.440;11.126;2023-06-24T01:50:10;14.66;86.47
71096;DHT22;58753;49.440;11.126;2023-06-24T01:52:37;14.62;86.48
71096;DHT22;58753;49.440;11.126;2023-06-24T01:55:06;14.53;86.39
71096;DHT22;58753;49.440;11.126;2023-06-24T01:57:34;14.46;86.48
71096;DHT22;58753;49.440;11.126;2023-06-24T02:00:00;14.43;86.56
71096;DHT22;58753;49.440;11.126;2023-06-24T02:02:26;14.38;86.63
71096;DHT22;58753;49.440;11.126;2023-06-24T02:04:54;14.32;86.58
71096;DHT22;58753;49.440;11.126;2023-06-24T02:07:20;14.29;86.76
71096;DHT22;58753;49.440;11.126;2023-06-24T02:09:46;14.22;86.87
71096;DHT22;58753;49.440;11.126;2023-06-24T02:12:12;14.21;87.01
71096;DHT22;58753;49.440;11.126;2023-06-24T02:14:38;14.17;86.95
71096;DHT22;58753;49.440;11.126;2023-06-24T02:17:06;14.15;87.12
71096;DHT22;58753;49.440;11.126;2023-06-24T02:19:33;14.12;87.09
71096;DHT22;58753;49.440;11.126;2023-06-24T02:22:01;14.09;87.17
71096;DHT22;58753;49.440;11.126;2023-06-24T02:24:28;14.08;87.29
71096;DHT22;58753;49.440;11.126;2023-06-24T02:26:54;14.04;87.28
71096;DHT22;58753;49.440;11.126;2023-06-24T02:29:21;14.02;87.37
71096;DHT22;58753;49.440;11.126;2023-06-24T02:31:47;14.05;87.45
71096;DHT22;58753;49.440;11.126;2023-06-24T02:34:13;14.04;87.53
71096;DHT22;58753;49.440;11.126;2023-06-24T02:36:39;14.04;87.38
71096;DHT22;58753;49.440;11.126;2023-06-24T02:39:04;13.95;87.32
71096;DHT22;58753;49.440;11.126;2023-06-24T02:41:30;13.97;87.42
71096;DHT22;58753;49.440;11.126;2023-06-24T02:43:55;13.91;87.39
71096;DHT22;58753;49.440;11.126;2023-06-24T02:46:21;13.84;87.25
71096;DHT22;58753;49.440;11.126;2023-06-24T02:48:48;13.78;87.43
71096;DHT22;58753;49.440;11.126;2023-06-24T02:51:14;13.75;87.52
71096;DHT22;58753;49.440;11.126;2023-06-24T02:53:41;13.73;87.75
71096;DHT22;58753;49.440;11.126;2023-06-24T02:56:08;13.70;87.64
71096;DHT22;58753;49.440;11.126;2023-06-24T02:58:36;13.66;87.66
71096;DHT22;58753;49.440;11.126;2023-06-24T03:01:03;13.67;87.74
71096;DHT22;58753;49.440;11.126;2023-06-24T03:03:34;13.64;87.80
71096;DHT22;58753;49.440;11.126;2023-06-24T03:06:01;13.61;87.81
71096;DHT22;58753;49.440;11.126;2023-06-24T03:08:27;13.60;87.73
71096;DHT22;58753;49.440;11.126;2023-06-24T03:10:57;13.60;87.80
71096;DHT22;58753;49.440;11.126;2023-06-24T03:13:22;13.54;87.71
71096;DHT22;58753;49.440;11.126;2023-06-24T03:15:48;13.56;87.94
71096;DHT22;58753;49.440;11.126;2023-06-24T03:18:14;13.57;87.86
71096;DHT22;58753;49.440;11.126;2023-06-24T03:20:39;13.50;87.82
71096;DHT22;58753;49.440;11.126;2023-06-24T03:23:08;13.47;87.99
71096;DHT22;58753;49.440;11.126;2023-06-24T03:25:34;13.46;87.78
71096;DHT22;58753;49.440;11.126;2023-06-24T03:28:01;13.43;87.89
71096;DHT22;58753;49.440;11.126;2023-06-24T03:30:29;13.40;87.90
71096;DHT22;58753;49.440;11.126;2023-06-24T03:32:54;13.39;88.03
71096;DHT22;58753;49.440;11.126;2023-06-24T03:35:19;13.40;88.16
71096;DHT22;58753;49.440;11.126;2023-06-24T03:37:45;13.37;88.07
71096;DHT22;58753;49.440;11.126;2023-06-24T03:40:10;13.33;87.94
71096;DHT22;58753;49.440;11.126;2023-06-24T03:42:37;13.32;88.22
71096;DHT22;58753;49.440;11.126;2023-06-24T03:45:03;13.35;88.48
71096;DHT22;58753;49.440;11.126;2023-06-24T03:47:29;13.36;88.46
71096;DHT22;58753;49.440;11.126;2023-06-24T03:49:54;13.36;88.25
71096;DHT22;58753;49.440;11.126;2023-06-24T03:52:19;13.40;88.42
71096;DHT22;58753;49.440;11.126;2023-06-24T03:54:45;13.44;88.48
71096;DHT22;58753;49.440;11.126;2023-06-24T03:57:12;13.40;88.35
71096;DHT22;58753;49.440;11.126;2023-06-24T03:59:37;13.42;88.22
71096;DHT22;58753;49.440;11.126;2023-06-24T04:02:03;13.40;88.07
71096;DHT22;58753;49.440;11.126;2023-06-24T04:04:28;13.33;88.09
71096;DHT22;58753;49.440;11.126;2023-06-24T04:06:53;13.36;88.20
71096;DHT22;58753;49.440;11.126;2023-06-24T04:09:19;13.35;88.29
71096;DHT22;58753;49.440;11.126;2023-06-24T04:11:44;13.33;88.28
71096;DHT22;58753;49.440;11.126;2023-06-24T04:14:09;13.39;88.59
71096;DHT22;58753;49.440;11.126;2023-06-24T04:16:35;13.43;88.68
71096;DHT22;58753;49.440;11.126;2023-06-24T04:19:01;13.50;88.60
71096;DHT22;58753;49.440;11.126;2023-06-24T04:21:26;13.51;88.33
71096;DHT22;58753;49.440;11.126;2023-06-24T04:23:52;13.50;88.37
71096;DHT22;58753;49.440;11.126;2023-06-24T04:26:17;13.50;88.33
71096;DHT22;58753;49.440;11.126;2023-06-24T04:28:43;13.56;88.65
71096;DHT22;58753;49.440;11.126;2023-06-24T04:31:08;13.61;88.58
71096;DHT22;58753;49.440;11.126;2023-06-24T04:33:33;13.67;88.69
71096;DHT22;58753;49.440;11.126;2023-06-24T04:35:59;13.74;88.54
71096;DHT22;58753;49.440;11.126;2023-06-24T04:38:25;13.80;88.43
71096;DHT22;58753;49.440;11.126;2023-06-24T04:40:50;13.82;88.32
71096;DHT22;58753;49.440;11.126;2023-06-24T04:43:16;13.82;88.28
71096;DHT22;58753;49.440;11.126;2023-06-24T04:45:41;13.87;88.26
71096;DHT22;58753;49.440;11.126;2023-06-24T04:48:07;13.91;88.42
71096;DHT22;58753;49.440;11.126;2023-06-24T04:50:32;13.92;88.18
71096;DHT22;58753;49.440;11.126;2023-06-24T04:52:58;13.98;88.55
71096;DHT22;58753;49.440;11.126;2023-06-24T04:55:23;14.09;88.64
71096;DHT22;58753;49.440;11.126;2023-06-24T04:57:49;14.14;88.43
71096;DHT22;58753;49.440;11.126;2023-06-24T05:00:14;14.19;88.35
71096;DHT22;58753;49.440;11.126;2023-06-24T05:02:40;14.25;88.42
71096;DHT22;58753;49.440;11.126;2023-06-24T05:05:05;14.31;88.36
71096;DHT22;58753;49.440;11.126;2023-06-24T05:07:31;14.38;88.33
71096;DHT22;58753;49.440;11.126;2023-06-24T05:09:56;14.43;88.38
71096;DHT22;58753;49.440;11.126;2023-06-24T05:12:22;14.46;88.09
71096;DHT22;58753;49.440;11.126;2023-06-24T05:14:50;14.51;88.16
71096;DHT22;58753;49.440;11.126;2023-06-24T05:17:18;14.59;88.23
71096;DHT22;58753;49.440;11.126;2023-06-24T05:19:43;14.69;88.18
71096;DHT22;58753;49.440;11.126;2023-06-24T05:22:09;14.75;88.08
71096;DHT22;58753;49.440;11.126;2023-06-24T05:24:34;14.83;87.82
71096;DHT22;58753;49.440;11.126;2023-06-24T05:27:04;14.90;87.73
71096;DHT22;58753;49.440;11.126;2023-06-24T05:29:31;14.97;87.62
71096;DHT22;58753;49.440;11.126;2023-06-24T05:31:56;15.06;87.42
71096;DHT22;58753;49.440;11.126;2023-06-24T05:34:22;15.16;87.21
71096;DHT22;58753;49.440;11.126;2023-06-24T05:36:47;15.24;87.24
71096;DHT22;58753;49.440;11.126;2023-06-24T05:39:13;15.30;86.92
71096;DHT22;58753;49.440;11.126;2023-06-24T05:41:39;15.35;86.87
71096;DHT22;58753;49.440;11.126;2023-06-24T05:44:07;15.47;86.95
71096;DHT22;58753;49.440;11.126;2023-06-24T05:46:32;15.57;86.69
71096;DHT22;58753;49.440;11.126;2023-06-24T05:48:58;15.65;86.67
71096;DHT22;58753;49.440;11.126;2023-06-24T05:51:24;15.78;86.54
71096;DHT22;58753;49.440;11.126;2023-06-24T05:53:49;15.85;86.24
71096;DHT22;58753;49.440;11.126;2023-06-24T05:56:14;15.96;86.10
71096;DHT22;58753;49.440;11.126;2023-06-24T05:58:40;16.04;85.85
71096;DHT22;58753;49.440;11.126;2023-06-24T06:01:07;16.10;85.70
71096;DHT22;58753;49.440;11.126;2023-06-24T06:03:32;16.15;85.44
71096;DHT22;58753;49.440;11.126;2023-06-24T06:05:57;16.26;84.90
71096;DHT22;58753;49.440;11.126;2023-06-24T06:08:23;16.33;84.65
71096;DHT22;58753;49.440;11.126;2023-06-24T06:10:48;16.42;84.44
71096;DHT22;58753;49.440;11.126;2023-06-24T06:13:13;16.42;84.01
71096;DHT22;58753;49.440;11.126;2023-06-24T06:15:39;16.52;84.08
71096;DHT22;58753;49.440;11.126;2023-06-24T06:18:04;16.57;83.70
71096;DHT22;58753;49.440;11.126;2023-06-24T06:20:29;16.60;83.67
71096;DHT22;58753;49.440;11.126;2023-06-24T06:22:55;16.67;83.49
71096;DHT22;58753;49.440;11.126;2023-06-24T06:25:20;16.76;83.38
71096;DHT22;58753;49.440;11.126;2023-06-24T06:27:46;16.80;83.12
71096;DHT22;58753;49.440;11.126;2023-06-24T06:30:12;16.85;82.97
71096;DHT22;58753;49.440;11.126;2023-06-24T06:32:37;16.94;82.80
71096;DHT22;58753;49.440;11.126;2023-06-24T06:35:03;17.01;82.02
71096;DHT22;58753;49.440;11.126;2023-06-24T06:37:28;17.08;81.25
71096;DHT22;58753;49.440;11.126;2023-06-24T06:39:54;17.18;80.65
71096;DHT22;58753;49.440;11.126;2023-06-24T06:42:19;17.22;80.31
71096;DHT22;58753;49.440;11.126;2023-06-24T06:44:44;17.34;80.05
71096;DHT22;58753;49.440;11.126;2023-06-24T06:47:10;17.45;79.41
71096;DHT22;58753;49.440;11.126;2023-06-24T06:49:36;17.55;78.69
71096;DHT22;58753;49.440;11.126;2023-06-24T06:52:01;17.71;78.37
71096;DHT22;58753;49.440;11.126;2023-06-24T06:54:26;17.79;77.51
71096;DHT22;58753;49.440;11.126;2023-06-24T06:56:52;17.83;76.99
71096;DHT22;58753;49.440;11.126;2023-06-24T06:59:17;17.90;76.24
71096;DHT22;58753;49.440;11.126;2023-06-24T07:01:43;17.99;75.65
71096;DHT22;58753;49.440;11.126;2023-06-24T07:04:08;18.09;74.81
71096;DHT22;58753;49.440;11.126;2023-06-24T07:06:33;18.14;74.09
71096;DHT22;58753;49.440;11.126;2023-06-24T07:08:59;18.27;73.61
71096;DHT22;58753;49.440;11.126;2023-06-24T07:11:24;18.33;73.26
71096;DHT22;58753;49.440;11.126;2023-06-24T07:13:51;18.38;72.51
71096;DHT22;58753;49.440;11.126;2023-06-24T07:16:17;18.51;71.87
71096;DHT22;58753;49.440;11.126;2023-06-24T07:18:43;18.58;71.21
71096;DHT22;58753;49.440;11.126;2023-06-24T07:21:08;18.68;70.89
71096;DHT22;58753;49.440;11.126;2023-06-24T07:23:34;18.74;70.22
71096;DHT22;58753;49.440;11.126;2023-06-24T07:25:59;18.83;69.18
71096;DHT22;58753;49.440;11.126;2023-06-24T07:28:24;18.92;68.85
71096;DHT22;58753;49.440;11.126;2023-06-24T07:30:50;19.02;68.15
71096;DHT22;58753;49.440;11.126;2023-06-24T07:33:15;19.10;67.70
71096;DHT22;58753;49.440;11.126;2023-06-24T07:35:40;19.15;67.72
71096;DHT22;58753;49.440;11.126;2023-06-24T07:38:06;19.21;67.48
71096;DHT22;58753;49.440;11.126;2023-06-24T07:40:31;19.25;67.35
71096;DHT22;58753;49.440;11.126;2023-06-24T07:42:57;19.38;67.24
71096;DHT22;58753;49.440;11.126;2023-06-24T07:45:22;19.52;66.88
71096;DHT22;58753;49.440;11.126;2023-06-24T07:47:48;19.58;66.63
71096;DHT22;58753;49.440;11.126;2023-06-24T07:50:14;19.59;66.32
71096;DHT22;58753;49.440;11.126;2023-06-24T07:52:39;19.61;66.61
71096;DHT22;58753;49.440;11.126;2023-06-24T07:55:05;19.67;66.46
71096;DHT22;58753;49.440;11.126;2023-06-24T07:57:31;19.73;65.68
71096;DHT22;58753;49.440;11.126;2023-06-24T07:59:56;19.73;65.52
71096;DHT22;58753;49.440;11.126;2023-06-24T08:02:22;19.73;65.49
71096;DHT22;58753;49.440;11.126;2023-06-24T08:04:49;19.87;65.22
71096;DHT22;58753;49.440;11.126;2023-06-24T08:07:14;20.01;65.05
71096;DHT22;58753;49.440;11.126;2023-06-24T08:09:40;20.10;64.83
71096;DHT22;58753;49.440;11.126;2023-06-24T08:12:05;20.12;64.44
71096;DHT22;58753;49.440;11.126;2023-06-24T08:14:31;20.14;64.49
71096;DHT22;58753;49.440;11.126;2023-06-24T08:16:56;20.17;64.26
71096;DHT22;58753;49.440;11.126;2023-06-24T08:19:23;20.17;64.27
71096;DHT22;58753;49.440;11.126;2023-06-24T08:21:48;20.23;64.28
71096;DHT22;58753;49.440;11.126;2023-06-24T08:24:14;20.21;64.24
71096;DHT22;58753;49.440;11.126;2023-06-24T08:26:39;20.33;64.23
71096;DHT22;58753;49.440;11.126;2023-06-24T08:29:04;20.41;63.69
71096;DHT22;58753;49.440;11.126;2023-06-24T08:31:31;20.55;63.80
71096;DHT22;58753;49.440;11.126;2023-06-24T08:33:59;20.65;62.42
71096;DHT22;58753;49.440;11.126;2023-06-24T08:36:28;20.67;61.61
71096;DHT22;58753;49.440;11.126;2023-06-24T08:38:54;20.72;61.43
71096;DHT22;58753;49.440;11.126;2023-06-24T08:41:19;20.72;61.39
71096;DHT22;58753;49.440;11.126;2023-06-24T08:43:45;20.79;61.16
71096;DHT22;58753;49.440;11.126;2023-06-24T08:46:12;20.78;60.82
71096;DHT22;58753;49.440;11.126;2023-06-24T08:48:39;20.79;61.09
71096;DHT22;58753;49.440;11.126;2023-06-24T08:51:07;20.84;60.40
71096;DHT22;58753;49.440;11.126;2023-06-24T08:53:34;20.92;59.75
71096;DHT22;58753;49.440;11.126;2023-06-24T08:56:01;20.99;59.55
71096;DHT22;58753;49.440;11.126;2023-06-24T08:58:26;21.03;58.87
71096;DHT22;58753;49.440;11.126;2023-06-24T09:00:52;21.03;58.67
71096;DHT22;58753;49.440;11.126;2023-06-24T09:03:18;21.09;58.72
71096;DHT22;58753;49.440;11.126;2023-06-24T09:05:43;21.18;58.62
71096;DHT22;58753;49.440;11.126;2023-06-24T09:08:09;21.19;57.91
71096;DHT22;58753;49.440;11.126;2023-06-24T09:10:36;21.33;57.97
71096;DHT22;58753;49.440;11.126;2023-06-24T09:13:03;21.36;55.59
71096;DHT22;58753;49.440;11.126;2023-06-24T09:15:36;21.33;54.76
71096;DHT22;58753;49.440;11.126;2023-06-24T09:18:03;21.38;54.38
71096;DHT22;58753;49.440;11.126;2023-06-24T09:20:32;21.50;53.79
71096;DHT22;58753;49.440;11.126;2023-06-24T09:23:02;21.56;53.28
71096;DHT22;58753;49.440;11.126;2023-06-24T09:25:29;21.67;53.27
71096;DHT22;58753;49.440;11.126;2023-06-24T09:27:54;21.69;51.99
71096;DHT22;58753;49.440;11.126;2023-06-24T09:32:50;21.77;50.01
71096;DHT22;58753;49.440;11.126;2023-06-24T09:35:20;21.93;48.86
71096;DHT22;58753;49.440;11.126;2023-06-24T09:37:54;22.08;49.18
71096;DHT22;58753;49.440;11.126;2023-06-24T09:40:20;22.18;49.47
71096;DHT22;58753;49.440;11.126;2023-06-24T09:42:57;22.27;49.79
71096;DHT22;58753;49.440;11.126;2023-06-24T09:45:28;22.28;50.06
71096;DHT22;58753;49.440;11.126;2023-06-24T09:47:54;22.35;50.24
71096;DHT22;58753;49.440;11.126;2023-06-24T09:50:20;22.37;50.28
71096;DHT22;58753;49.440;11.126;2023-06-24T09:52:46;22.45;50.39
71096;DHT22;58753;49.440;11.126;2023-06-24T09:55:14;22.45;50.17
71096;DHT22;58753;49.440;11.126;2023-06-24T09:57:41;22.45;49.76
71096;DHT22;58753;49.440;11.126;2023-06-24T10:00:08;22.51;48.55
71096;DHT22;58753;49.440;11.126;2023-06-24T10:02:35;22.56;46.96
71096;DHT22;58753;49.440;11.126;2023-06-24T10:05:01;22.75;46.49
71096;DHT22;58753;49.440;11.126;2023-06-24T10:07:27;22.94;45.85
71096;DHT22;58753;49.440;11.126;2023-06-24T10:09:53;22.96;44.90
71096;DHT22;58753;49.440;11.126;2023-06-24T10:12:19;22.85;44.69
71096;DHT22;58753;49.440;11.126;2023-06-24T10:14:44;22.95;45.00
71096;DHT22;58753;49.440;11.126;2023-06-24T10:17:11;23.07;45.09
71096;DHT22;58753;49.440;11.126;2023-06-24T10:19:38;23.20;44.77
71096;DHT22;58753;49.440;11.126;2023-06-24T10:22:10;23.31;45.09
71096;DHT22;58753;49.440;11.126;2023-06-24T10:24:37;23.34;45.44
71096;DHT22;58753;49.440;11.126;2023-06-24T10:27:17;23.40;45.52
71096;DHT22;58753;49.440;11.126;2023-06-24T10:29:50;23.46;45.47
71096;DHT22;58753;49.440;11.126;2023-06-24T10:32:18;23.63;45.82
71096;DHT22;58753;49.440;11.126;2023-06-24T10:34:45;23.74;44.54
71096;DHT22;58753;49.440;11.126;2023-06-24T10:37:18;23.70;43.39
71096;DHT22;58753;49.440;11.126;2023-06-24T10:44:52;23.87;43.80
71096;DHT22;58753;49.440;11.126;2023-06-24T10:47:18;23.96;43.54
71096;DHT22;58753;49.440;11.126;2023-06-24T10:49:44;24.02;42.57
71096;DHT22;58753;49.440;11.126;2023-06-24T10:52:10;24.00;42.78
71096;DHT22;58753;49.440;11.126;2023-06-24T10:54:37;24.00;43.17
71096;DHT22;58753;49.440;11.126;2023-06-24T10:57:03;24.04;43.54
71096;DHT22;58753;49.440;11.126;2023-06-24T10:59:40;24.15;43.93
71096;DHT22;58753;49.440;11.126;2023-06-24T11:02:07;24.28;43.52
71096;DHT22;58753;49.440;11.126;2023-06-24T11:04:34;24.43;43.61
71096;DHT22;58753;49.440;11.126;2023-06-24T11:07:00;24.52;43.28
71096;DHT22;58753;49.440;11.126;2023-06-24T11:09:26;24.69;43.61
71096;DHT22;58753;49.440;11.126;2023-06-24T11:11:52;24.93;43.91
71096;DHT22;58753;49.440;11.126;2023-06-24T11:14:19;25.03;43.49
71096;DHT22;58753;49.440;11.126;2023-06-24T11:16:47;25.10;42.70
71096;DHT22;58753;49.440;11.126;2023-06-24T11:19:13;24.68;41.37
71096;DHT22;58753;49.440;11.126;2023-06-24T11:21:38;24.41;41.46
71096;DHT22;58753;49.440;11.126;2023-06-24T11:24:04;24.65;42.28
71096;DHT22;58753;49.440;11.126;2023-06-24T11:26:30;24.79;42.00
71096;DHT22;58753;49.440;11.126;2023-06-24T11:28:56;25.04;41.94
71096;DHT22;58753;49.440;11.126;2023-06-24T11:31:25;25.23;41.77
71096;DHT22;58753;49.440;11.126;2023-06-24T11:33:51;25.38;41.73
71096;DHT22;58753;49.440;11.126;2023-06-24T11:36:18;25.06;41.02
71096;DHT22;58753;49.440;11.126;2023-06-24T11:38:45;24.61;40.98
71096;DHT22;58753;49.440;11.126;2023-06-24T11:41:11;24.38;41.92
71096;DHT22;58753;49.440;11.126;2023-06-24T11:43:36;24.65;43.09
71096;DHT22;58753;49.440;11.126;2023-06-24T11:46:01;25.07;42.61
71096;DHT22;58753;49.440;11.126;2023-06-24T11:48:30;25.33;41.03
71096;DHT22;58753;49.440;11.126;2023-06-24T11:50:56;25.00;40.26
71096;DHT22;58753;49.440;11.126;2023-06-24T11:53:41;24.79;40.83
71096;DHT22;58753;49.440;11.126;2023-06-24T11:56:07;24.89;41.43
71096;DHT22;58753;49.440;11.126;2023-06-24T11:58:34;24.93;39.56
71096;DHT22;58753;49.440;11.126;2023-06-24T12:01:00;25.10;39.30
71096;DHT22;58753;49.440;11.126;2023-06-24T12:03:28;24.92;39.26
71096;DHT22;58753;49.440;11.126;2023-06-24T12:05:54;24.71;39.81
71096;DHT22;58753;49.440;11.126;2023-06-24T12:08:19;24.48;40.17
71096;DHT22;58753;49.440;11.126;2023-06-24T12:10:45;24.29;41.08
71096;DHT22;58753;49.440;11.126;2023-06-24T12:13:11;24.35;41.22
71096;DHT22;58753;49.440;11.126;2023-06-24T12:15:36;24.63;42.07
71096;DHT22;58753;49.440;11.126;2023-06-24T12:18:02;25.07;41.85
71096;DHT22;58753;49.440;11.126;2023-06-24T12:20:28;25.51;41.20
71096;DHT22;58753;49.440;11.126;2023-06-24T12:22:54;25.95;40.60
71096;DHT22;58753;49.440;11.126;2023-06-24T12:25:20;26.18;40.09
71096;DHT22;58753;49.440;11.126;2023-06-24T12:27:45;26.33;40.51
71096;DHT22;58753;49.440;11.126;2023-06-24T12:30:12;25.95;40.14
71096;DHT22;58753;49.440;11.126;2023-06-24T12:32:38;25.53;40.27
71096;DHT22;58753;49.440;11.126;2023-06-24T12:35:04;25.24;40.39
71096;DHT22;58753;49.440;11.126;2023-06-24T12:37:31;25.09;41.24
71096;DHT22;58753;49.440;11.126;2023-06-24T12:39:57;25.57;41.90
71096;DHT22;58753;49.440;11.126;2023-06-24T12:42:22;25.95;41.73
71096;DHT22;58753;49.440;11.126;2023-06-24T12:44:48;26.05;40.29
71096;DHT22;58753;49.440;11.126;2023-06-24T12:47:13;26.38;41.01
71096;DHT22;58753;49.440;11.126;2023-06-24T12:49:38;26.57;40.75
71096;DHT22;58753;49.440;11.126;2023-06-24T12:52:04;26.73;39.76
71096;DHT22;58753;49.440;11.126;2023-06-24T12:54:29;26.78;39.44
71096;DHT22;58753;49.440;11.126;2023-06-24T12:56:55;26.83;38.01
71096;DHT22;58753;49.440;11.126;2023-06-24T12:59:20;26.90;38.37
71096;DHT22;58753;49.440;11.126;2023-06-24T13:01:45;27.06;38.75
71096;DHT22;58753;49.440;11.126;2023-06-24T13:04:11;27.15;37.64
71096;DHT22;58753;49.440;11.126;2023-06-24T13:06:36;27.33;37.90
71096;DHT22;58753;49.440;11.126;2023-06-24T13:09:02;27.41;38.01
71096;DHT22;58753;49.440;11.126;2023-06-24T13:11:28;27.64;38.24
71096;DHT22;58753;49.440;11.126;2023-06-24T13:13:53;27.69;37.88
71096;DHT22;58753;49.440;11.126;2023-06-24T13:16:18;27.75;36.87
71096;DHT22;58753;49.440;11.126;2023-06-24T13:18:44;27.81;36.34
71096;DHT22;58753;49.440;11.126;2023-06-24T13:21:09;27.88;35.76
71096;DHT22;58753;49.440;11.126;2023-06-24T13:23:35;27.92;35.34
71096;DHT22;58753;49.440;11.126;2023-06-24T13:26:02;27.99;34.88
71096;DHT22;58753;49.440;11.126;2023-06-24T13:28:28;28.08;34.59
71096;DHT22;58753;49.440;11.126;2023-06-24T13:30:53;28.10;33.22
71096;DHT22;58753;49.440;11.126;2023-06-24T13:33:19;28.04;32.85
71096;DHT22;58753;49.440;11.126;2023-06-24T13:35:45;28.06;32.95
71096;DHT22;58753;49.440;11.126;2023-06-24T13:38:10;28.10;33.55
71096;DHT22;58753;49.440;11.126;2023-06-24T13:40:37;28.22;33.52
71096;DHT22;58753;49.440;11.126;2023-06-24T13:43:03;28.32;33.06
71096;DHT22;58753;49.440;11.126;2023-06-24T13:45:28;28.49;33.84
71096;DHT22;58753;49.440;11.126;2023-06-24T13:47:53;28.67;34.19
71096;DHT22;58753;49.440;11.126;2023-06-24T13:50:20;28.67;33.41
71096;DHT22;58753;49.440;11.126;2023-06-24T13:52:45;27.99;32.74
71096;DHT22;58753;49.440;11.126;2023-06-24T13:55:11;27.43;33.28
71096;DHT22;58753;49.440;11.126;2023-06-24T13:57:36;26.96;33.80
71096;DHT22;58753;49.440;11.126;2023-06-24T14:00:02;27.30;35.01
71096;DHT22;58753;49.440;11.126;2023-06-24T14:02:28;26.92;34.17
71096;DHT22;58753;49.440;11.126;2023-06-24T14:04:53;26.70;34.32
71096;DHT22;58753;49.440;11.126;2023-06-24T14:07:19;26.52;34.35
71096;DHT22;58753;49.440;11.126;2023-06-24T14:09:44;26.28;34.45
71096;DHT22;58753;49.440;11.126;2023-06-24T14:12:10;26.04;34.72
71096;DHT22;58753;49.440;11.126;2023-06-24T14:14:36;25.87;34.82
71096;DHT22;58753;49.440;11.126;2023-06-24T14:17:06;25.70;35.28
71096;DHT22;58753;49.440;11.126;2023-06-24T14:19:34;25.53;35.49
71096;DHT22;58753;49.440;11.126;2023-06-24T14:22:00;25.38;35.64
71096;DHT22;58753;49.440;11.126;2023-06-24T14:24:25;25.66;37.13
71096;DHT22;58753;49.440;11.126;2023-06-24T14:26:51;26.25;36.96
71096;DHT22;58753;49.440;11.126;2023-06-24T14:29:16;26.64;36.30
71096;DHT22;58753;49.440;11.126;2023-06-24T14:31:42;27.08;35.95
71096;DHT22;58753;49.440;11.126;2023-06-24T14:34:07;27.41;34.81
71096;DHT22;58753;49.440;11.126;2023-06-24T14:36:33;27.58;33.57
71096;DHT22;58753;49.440;11.126;2023-06-24T14:38:58;27.78;33.38
71096;DHT22;58753;49.440;11.126;2023-06-24T14:41:24;27.96;33.10
71096;DHT22;58753;49.440;11.126;2023-06-24T14:43:49;28.19;33.20
71096;DHT22;58753;49.440;11.126;2023-06-24T14:46:15;28.19;32.05
71096;DHT22;58753;49.440;11.126;2023-06-24T14:48:40;28.15;30.31
71096;DHT22;58753;49.440;11.126;2023-06-24T14:51:06;28.22;30.45
71096;DHT22;58753;49.440;11.126;2023-06-24T14:53:31;28.35;30.73
71096;DHT22;58753;49.440;11.126;2023-06-24T14:55:57;28.55;31.15
71096;DHT22;58753;49.440;11.126;2023-06-24T14:58:22;28.77;31.97
71096;DHT22;58753;49.440;11.126;2023-06-24T15:00:47;28.94;31.35
71096;DHT22;58753;49.440;11.126;2023-06-24T15:03:13;29.07;31.84
71096;DHT22;58753;49.440;11.126;2023-06-24T15:05:38;29.04;30.10
71096;DHT22;58753;49.440;11.126;2023-06-24T15:08:05;29.00;29.88
71096;DHT22;58753;49.440;11.126;2023-06-24T15:10:30;29.08;30.08
71096;DHT22;58753;49.440;11.126;2023-06-24T15:12:56;29.15;30.16
71096;DHT22;58753;49.440;11.126;2023-06-24T15:15:21;29.20;30.26
71096;DHT22;58753;49.440;11.126;2023-06-24T15:17:47;29.24;30.63
71096;DHT22;58753;49.440;11.126;2023-06-24T15:20:12;29.18;30.99
71096;DHT22;58753;49.440;11.126;2023-06-24T15:22:38;29.11;31.06
71096;DHT22;58753;49.440;11.126;2023-06-24T15:25:05;29.07;31.36
71096;DHT22;58753;49.440;11.126;2023-06-24T15:27:30;28.46;30.43
71096;DHT22;58753;49.440;11.126;2023-06-24T15:29:55;27.69;30.48
71096;DHT22;58753;49.440;11.126;2023-06-24T15:32:21;27.29;32.30